Cadillac, Michigan
Current Conditions -  °F | °C
As of 8:55 PM on Tuesday 25 Nov 2014 (Local Time) from KCAD Reporting Station
Overcast Overcast  
Wind Chill: 18°   Ceiling: 1600
Heat Index: 24°   Visibility: 10mi
Dew Point: 20°   Wind: 5mph
Humidity: 84%   Direction: 240°WSW
Pressure: 30.08"   Gusts: NA
Location:  44.26°N, 85.4°W
Report Text: KCAD 260155Z AUTO 24004KT 10SM OVC016 M04/M07 A3008 RMK AO2 T10451069
Loading
Personal Weather Stations






























Interactive Weather Map New forecast layout! Learn more

10-Day Weather Forecast

Advertisements
Track Severe Weather on mobile